createdAt,value
2023-05-31T00:00:36.499Z,15.04
2023-05-31T00:01:37.353Z,15.05
2023-05-31T00:02:38.381Z,14.97
2023-05-31T00:03:38.607Z,14.99
2023-05-31T00:04:39.014Z,14.96
2023-05-31T00:05:39.516Z,14.94
2023-05-31T00:06:40.490Z,14.86
2023-05-31T00:07:40.992Z,14.9
2023-05-31T00:08:41.906Z,14.82
2023-05-31T00:09:42.672Z,14.9
2023-05-31T00:10:43.603Z,14.77
2023-05-31T00:11:44.260Z,14.77
2023-05-31T00:12:44.752Z,14.87
2023-05-31T00:13:46.020Z,14.78
2023-05-31T00:14:46.480Z,14.77
2023-05-31T00:15:46.684Z,14.74
2023-05-31T00:17:49.769Z,14.71
2023-05-31T00:19:08.494Z,14.7
2023-05-31T00:20:09.001Z,14.62
2023-05-31T00:21:10.057Z,14.61
2023-05-31T00:22:10.545Z,14.58
2023-05-31T00:23:11.222Z,14.53
2023-05-31T00:24:11.619Z,14.55
2023-05-31T00:25:12.023Z,14.59
2023-05-31T00:26:12.729Z,14.56
2023-05-31T00:27:13.550Z,14.56
2023-05-31T00:28:14.656Z,14.51
2023-05-31T00:29:15.120Z,14.53
2023-05-31T00:30:15.824Z,14.58
2023-05-31T00:31:16.434Z,14.58
2023-05-31T00:32:16.523Z,14.48
2023-05-31T00:33:17.550Z,14.45
2023-05-31T00:34:18.689Z,14.45
2023-05-31T00:35:18.968Z,14.49
2023-05-31T00:36:19.532Z,14.49
2023-05-31T00:37:20.233Z,14.34
2023-05-31T00:38:21.155Z,14.38
2023-05-31T00:39:21.418Z,14.28
2023-05-31T00:40:21.951Z,14.22
2023-05-31T00:41:22.720Z,14.4
2023-05-31T00:42:23.463Z,14.28
2023-05-31T00:43:23.819Z,14.25
2023-05-31T00:44:24.775Z,14.33
2023-05-31T00:45:25.852Z,14.34
2023-05-31T00:46:26.546Z,14.23
2023-05-31T00:47:27.189Z,14.33
2023-05-31T00:48:27.758Z,14.3
2023-05-31T00:49:28.500Z,14.28
2023-05-31T00:50:29.071Z,14.22
2023-05-31T00:51:29.205Z,14.18
2023-05-31T00:52:29.545Z,14.22
2023-05-31T00:53:29.931Z,14.18
2023-05-31T00:54:30.837Z,14.22
2023-05-31T00:55:31.082Z,14.2
2023-05-31T00:56:32.103Z,14.2
2023-05-31T00:57:33.219Z,14.16
2023-05-31T00:58:33.694Z,14.18
2023-05-31T00:59:34.391Z,14.11
2023-05-31T01:00:34.896Z,14.12
2023-05-31T01:01:35.643Z,14.12
2023-05-31T01:02:35.957Z,14.04
2023-05-31T01:03:36.829Z,14.07
2023-05-31T01:04:36.818Z,14.01
2023-05-31T01:05:37.559Z,14.04
2023-05-31T01:06:37.515Z,14.04
2023-05-31T01:07:38.016Z,14.07
2023-05-31T01:08:38.358Z,14.04
2023-05-31T01:09:38.884Z,14.03
2023-05-31T01:10:40.052Z,13.93
2023-05-31T01:11:40.183Z,13.91
2023-05-31T01:12:41.010Z,14.03
2023-05-31T01:13:41.700Z,13.97
2023-05-31T01:14:42.603Z,14.01
2023-05-31T01:15:42.870Z,13.95
2023-05-31T01:16:44.038Z,13.91
2023-05-31T01:17:43.904Z,13.87
2023-05-31T01:18:44.939Z,13.87
2023-05-31T01:19:45.601Z,13.83
2023-05-31T01:20:46.525Z,13.86
2023-05-31T01:21:47.532Z,13.82
2023-05-31T01:22:48.428Z,13.87
2023-05-31T01:23:49.150Z,13.85
2023-05-31T01:24:49.661Z,13.85
2023-05-31T01:25:50.676Z,13.83
2023-05-31T01:26:51.489Z,13.87
2023-05-31T01:27:51.819Z,13.83
2023-05-31T01:28:52.554Z,13.85
2023-05-31T01:29:53.040Z,13.83
2023-05-31T01:30:53.767Z,13.82
2023-05-31T01:31:54.085Z,13.78
2023-05-31T01:32:55.146Z,13.76
2023-05-31T01:33:54.955Z,13.79
2023-05-31T01:34:55.948Z,13.83
2023-05-31T01:35:56.224Z,13.76
2023-05-31T01:36:56.770Z,13.73
2023-05-31T01:37:57.305Z,13.71
2023-05-31T01:38:58.036Z,13.76
2023-05-31T01:39:58.813Z,13.76
2023-05-31T01:40:59.193Z,13.7
2023-05-31T01:41:59.019Z,13.7
2023-05-31T01:42:59.554Z,13.75
2023-05-31T01:44:00.460Z,13.65
2023-05-31T01:45:01.171Z,13.67
2023-05-31T01:46:01.909Z,13.71
2023-05-31T01:47:02.827Z,13.6
2023-05-31T01:48:03.375Z,13.6
2023-05-31T01:49:04.138Z,13.58
2023-05-31T01:50:04.862Z,13.54
2023-05-31T01:51:06.195Z,13.55
2023-05-31T01:52:06.674Z,13.55
2023-05-31T01:53:07.369Z,13.52
2023-05-31T01:54:07.911Z,13.4
2023-05-31T01:55:08.674Z,13.46
2023-05-31T01:56:08.905Z,13.4
2023-05-31T01:57:09.694Z,13.39
2023-05-31T01:58:09.970Z,13.39
2023-05-31T01:59:11.101Z,13.27
2023-05-31T02:00:11.629Z,13.31
2023-05-31T02:01:12.979Z,13.24
2023-05-31T02:02:13.276Z,13.23
2023-05-31T02:03:14.123Z,13.33
2023-05-31T02:04:14.831Z,13.37
2023-05-31T02:05:15.029Z,13.24
2023-05-31T02:06:15.437Z,13.24
2023-05-31T02:07:16.174Z,13.27
2023-05-31T02:08:16.925Z,13.21
2023-05-31T02:09:17.635Z,13.28
2023-05-31T02:10:17.996Z,13.26
2023-05-31T02:11:18.742Z,13.2
2023-05-31T02:12:18.699Z,13.21
2023-05-31T02:13:18.973Z,13.17
2023-05-31T02:14:34.636Z,13.17
2023-05-31T02:16:20.656Z,13.19
2023-05-31T02:17:21.811Z,13.17
2023-05-31T02:18:22.583Z,13.16
2023-05-31T02:19:23.571Z,13.17
2023-05-31T02:20:24.644Z,13.23
2023-05-31T02:21:25.234Z,13.12
2023-05-31T02:22:25.951Z,13.19
2023-05-31T02:23:26.669Z,13.16
2023-05-31T02:24:27.177Z,13.09
2023-05-31T02:25:27.489Z,13.11
2023-05-31T02:26:28.587Z,13.09
2023-05-31T02:27:29.282Z,13.08
2023-05-31T02:28:30.003Z,13.01
2023-05-31T02:29:30.693Z,13.05
2023-05-31T02:30:31.423Z,13.02
2023-05-31T02:31:32.225Z,12.98
2023-05-31T02:32:32.378Z,12.99
2023-05-31T02:33:32.996Z,12.95
2023-05-31T02:34:33.261Z,12.93
2023-05-31T02:35:33.805Z,12.91
2023-05-31T02:36:34.269Z,12.93
2023-05-31T02:37:34.367Z,12.87
2023-05-31T02:38:34.842Z,12.91
2023-05-31T02:39:35.344Z,12.93
2023-05-31T02:40:36.061Z,12.9
2023-05-31T02:41:36.742Z,12.78
2023-05-31T02:42:37.642Z,12.81
2023-05-31T02:43:38.022Z,12.81
2023-05-31T02:44:38.688Z,12.78
2023-05-31T02:45:39.427Z,12.75
2023-05-31T02:46:39.800Z,12.88
2023-05-31T02:47:40.167Z,12.83
2023-05-31T02:48:40.999Z,12.78
2023-05-31T02:49:41.707Z,12.8
2023-05-31T02:50:42.044Z,12.81
2023-05-31T02:51:42.661Z,12.73
2023-05-31T02:52:43.363Z,12.72
2023-05-31T02:53:44.111Z,12.66
2023-05-31T02:54:44.625Z,12.65
2023-05-31T02:55:45.315Z,12.69
2023-05-31T02:56:45.124Z,12.68
2023-05-31T02:57:45.652Z,12.68
2023-05-31T02:58:46.350Z,12.65
2023-05-31T02:59:46.920Z,12.53
2023-05-31T03:00:47.252Z,12.65
2023-05-31T03:01:47.944Z,12.63
2023-05-31T03:02:49.257Z,12.61
2023-05-31T03:03:49.653Z,12.54
2023-05-31T03:04:50.538Z,12.54
2023-05-31T03:05:51.056Z,12.57
2023-05-31T03:06:51.483Z,12.68
2023-05-31T03:07:52.245Z,12.66
2023-05-31T03:08:52.752Z,12.65
2023-05-31T03:09:53.073Z,12.7
2023-05-31T03:10:53.826Z,12.66
2023-05-31T03:11:53.833Z,12.63
2023-05-31T03:12:54.425Z,12.69
2023-05-31T03:13:55.056Z,12.68
2023-05-31T03:14:55.336Z,12.63
2023-05-31T03:15:56.039Z,12.63
2023-05-31T03:16:57.034Z,12.65
2023-05-31T03:17:57.143Z,12.69
2023-05-31T03:18:57.167Z,12.63
2023-05-31T03:19:58.097Z,12.69
2023-05-31T03:20:59.116Z,12.66
2023-05-31T03:21:58.769Z,12.66
2023-05-31T03:22:59.551Z,12.69
2023-05-31T03:24:00.133Z,12.63
2023-05-31T03:25:01.096Z,12.68
2023-05-31T03:26:01.836Z,12.65
2023-05-31T03:27:02.092Z,12.69
2023-05-31T03:28:02.645Z,12.63
2023-05-31T03:29:03.542Z,12.68
2023-05-31T03:30:04.410Z,12.63
2023-05-31T03:31:04.975Z,12.68
2023-05-31T03:32:04.951Z,12.63
2023-05-31T03:33:06.240Z,12.68
2023-05-31T03:34:06.412Z,12.63
2023-05-31T03:35:06.920Z,12.66
2023-05-31T03:36:07.780Z,12.57
2023-05-31T03:38:08.346Z,12.62
2023-05-31T03:39:09.263Z,12.58
2023-05-31T03:40:10.149Z,12.51
2023-05-31T03:41:11.099Z,12.58
2023-05-31T03:42:10.827Z,12.51
2023-05-31T03:43:11.778Z,12.58
2023-05-31T03:44:12.699Z,12.51
2023-05-31T03:45:13.400Z,12.53
2023-05-31T03:46:14.031Z,12.45
2023-05-31T03:47:15.122Z,12.47
2023-05-31T03:48:15.035Z,12.45
2023-05-31T03:49:15.697Z,12.39
2023-05-31T03:50:15.758Z,12.37
2023-05-31T03:51:16.252Z,12.47
2023-05-31T03:52:17.170Z,12.33
2023-05-31T03:53:17.477Z,12.32
2023-05-31T03:54:18.565Z,12.33
2023-05-31T03:55:19.646Z,12.43
2023-05-31T03:56:20.649Z,12.36
2023-05-31T03:57:20.649Z,12.43
2023-05-31T03:58:21.140Z,12.32
2023-05-31T03:59:21.846Z,12.39
2023-05-31T04:00:21.848Z,12.29
2023-05-31T04:01:22.373Z,12.32
2023-05-31T04:02:23.136Z,12.3
2023-05-31T04:03:24.670Z,12.37
2023-05-31T04:04:24.916Z,12.36
2023-05-31T04:05:39.775Z,12.39
2023-05-31T04:07:26.449Z,12.39
2023-05-31T04:08:26.982Z,12.37
2023-05-31T04:09:30.832Z,12.37
2023-05-31T04:10:28.369Z,12.4
2023-05-31T04:11:29.090Z,12.3
2023-05-31T04:12:29.864Z,12.36
2023-05-31T04:13:30.572Z,12.36
2023-05-31T04:14:30.832Z,12.45
2023-05-31T04:15:31.539Z,12.36
2023-05-31T04:16:33.007Z,12.39
2023-05-31T04:17:32.744Z,12.47
2023-05-31T04:18:33.391Z,12.45
2023-05-31T04:19:34.308Z,12.5
2023-05-31T04:20:35.109Z,12.43
2023-05-31T04:21:36.026Z,12.47
2023-05-31T04:22:36.685Z,12.51
2023-05-31T04:23:37.379Z,12.53
2023-05-31T04:24:38.528Z,12.55
2023-05-31T04:25:39.073Z,12.5
2023-05-31T04:26:39.348Z,12.51
2023-05-31T04:27:40.417Z,12.51
2023-05-31T04:28:41.242Z,12.54
2023-05-31T04:29:41.986Z,12.53
2023-05-31T04:30:42.928Z,12.58
2023-05-31T04:31:56.148Z,12.55
2023-05-31T04:33:44.164Z,12.51
2023-05-31T04:34:44.931Z,12.58
2023-05-31T04:35:45.631Z,12.57
2023-05-31T04:36:46.591Z,12.57
2023-05-31T04:37:46.607Z,12.57
2023-05-31T04:38:47.493Z,12.58
2023-05-31T04:39:48.221Z,12.55
2023-05-31T04:40:48.944Z,12.68
2023-05-31T04:41:49.324Z,12.69
2023-05-31T04:42:50.244Z,12.75
2023-05-31T04:43:50.500Z,12.62
2023-05-31T04:44:50.880Z,12.76
2023-05-31T04:45:51.662Z,12.78
2023-05-31T04:46:52.611Z,12.83
2023-05-31T04:47:52.996Z,12.8
2023-05-31T04:48:53.298Z,12.83
2023-05-31T04:50:15.543Z,12.87
2023-05-31T04:50:55.005Z,12.94
2023-05-31T04:51:55.566Z,12.98
2023-05-31T04:52:56.699Z,13.01
2023-05-31T04:53:57.212Z,12.95
2023-05-31T04:54:58.107Z,13.02
2023-05-31T04:55:58.437Z,13.08
2023-05-31T04:56:59.325Z,13.06
2023-05-31T04:58:32.160Z,13.21
2023-05-31T05:00:01.799Z,13.19
2023-05-31T05:01:03.201Z,13.28
2023-05-31T05:02:03.278Z,13.21
2023-05-31T05:03:04.556Z,13.23
2023-05-31T05:04:05.115Z,13.36
2023-05-31T05:05:04.948Z,13.31
2023-05-31T05:06:05.495Z,13.21
2023-05-31T05:07:06.234Z,13.31
2023-05-31T05:08:07.476Z,13.28
2023-05-31T05:09:07.667Z,13.2
2023-05-31T05:10:08.596Z,13.37
2023-05-31T05:11:09.098Z,13.3
2023-05-31T05:12:10.125Z,13.37
2023-05-31T05:13:11.019Z,13.4
2023-05-31T05:14:11.725Z,13.46
2023-05-31T05:15:12.630Z,13.39
2023-05-31T05:16:12.584Z,13.52
2023-05-31T05:17:13.832Z,13.6
2023-05-31T05:18:14.014Z,13.6
2023-05-31T05:19:14.300Z,13.6
2023-05-31T05:20:15.191Z,13.64
2023-05-31T05:21:16.017Z,13.7
2023-05-31T05:22:16.304Z,13.75
2023-05-31T05:23:16.800Z,13.7
2023-05-31T05:24:17.307Z,13.73
2023-05-31T05:25:18.092Z,13.83
2023-05-31T05:26:19.150Z,13.76
2023-05-31T05:27:19.926Z,13.79
2023-05-31T05:28:20.535Z,13.83
2023-05-31T05:29:21.667Z,13.89
2023-05-31T05:30:22.589Z,13.87
2023-05-31T05:31:22.961Z,13.91
2023-05-31T05:32:37.982Z,13.94
2023-05-31T05:34:24.864Z,14.07
2023-05-31T05:35:25.351Z,14.04
2023-05-31T05:36:25.857Z,14.05
2023-05-31T05:37:26.513Z,14.07
2023-05-31T05:38:27.476Z,14.18
2023-05-31T05:39:27.752Z,14.25
2023-05-31T05:40:28.635Z,14.2
2023-05-31T05:42:00.644Z,14.23
2023-05-31T05:43:29.562Z,14.37
2023-05-31T05:44:30.043Z,14.38
2023-05-31T05:45:30.338Z,14.41
2023-05-31T05:46:31.129Z,14.43
2023-05-31T05:47:31.944Z,14.4
2023-05-31T05:50:35.203Z,14.56
2023-05-31T05:51:35.429Z,14.51
2023-05-31T05:52:36.325Z,14.63
2023-05-31T05:53:37.050Z,14.7
2023-05-31T05:54:39.760Z,14.77
2023-05-31T05:55:38.099Z,14.79
2023-05-31T05:56:38.825Z,14.82
2023-05-31T05:57:39.338Z,14.92
2023-05-31T05:58:40.264Z,15
2023-05-31T05:59:40.748Z,15.02
2023-05-31T06:00:41.671Z,15
2023-05-31T06:01:42.058Z,15.07
2023-05-31T06:02:43.026Z,15.07
2023-05-31T06:03:43.675Z,15.07
2023-05-31T06:04:43.952Z,15.04
2023-05-31T06:05:44.982Z,15.18
2023-05-31T06:06:47.233Z,15.11
2023-05-31T06:07:46.381Z,15.15
2023-05-31T06:08:47.279Z,15.22
2023-05-31T06:09:47.603Z,15.3
2023-05-31T06:10:48.118Z,15.25
2023-05-31T06:11:48.542Z,15.33
2023-05-31T06:12:49.022Z,15.41
2023-05-31T06:13:49.661Z,15.44
2023-05-31T06:14:50.359Z,15.51
2023-05-31T06:15:51.399Z,15.54
2023-05-31T06:16:52.439Z,15.59
2023-05-31T06:17:52.593Z,15.67
2023-05-31T06:18:53.347Z,15.69
2023-05-31T06:19:53.821Z,15.83
2023-05-31T06:20:54.653Z,15.8
2023-05-31T06:22:54.889Z,15.88
2023-05-31T06:23:55.451Z,15.91
2023-05-31T06:24:55.743Z,15.88
2023-05-31T06:25:56.072Z,15.9
2023-05-31T06:26:56.979Z,15.91
2023-05-31T06:27:57.707Z,15.83
2023-05-31T06:28:58.623Z,15.81
2023-05-31T06:29:59.346Z,15.83
2023-05-31T06:31:01.102Z,15.78
2023-05-31T06:32:01.019Z,15.81
2023-05-31T06:33:01.511Z,15.84
2023-05-31T06:34:01.778Z,15.83
2023-05-31T06:35:02.720Z,15.73
2023-05-31T06:36:03.551Z,15.84
2023-05-31T06:37:04.337Z,15.84
2023-05-31T06:38:05.269Z,15.9
2023-05-31T06:39:06.151Z,15.91
2023-05-31T06:40:06.891Z,15.78
2023-05-31T06:41:07.141Z,15.85
2023-05-31T06:42:08.020Z,15.9
2023-05-31T06:43:08.696Z,15.96
2023-05-31T06:44:09.406Z,15.96
2023-05-31T06:45:09.885Z,16.03
2023-05-31T06:46:10.988Z,16.02
2023-05-31T06:47:11.831Z,16.16
2023-05-31T06:48:12.063Z,16.32
2023-05-31T06:49:18.595Z,16.46
2023-05-31T06:51:13.388Z,16.55
2023-05-31T06:52:45.594Z,16.61
2023-05-31T06:53:14.426Z,16.66
2023-05-31T06:54:14.120Z,16.83
2023-05-31T06:55:16.850Z,16.8
2023-05-31T06:57:16.212Z,17.1
2023-05-31T06:58:16.327Z,17.12
2023-05-31T06:59:17.013Z,17.22
2023-05-31T07:00:17.984Z,17.17
2023-05-31T07:01:18.812Z,17.34
2023-05-31T07:02:19.496Z,17.35
2023-05-31T07:03:19.544Z,17.39
2023-05-31T07:04:19.565Z,17.37
2023-05-31T07:05:20.288Z,17.46
2023-05-31T07:06:22.854Z,17.41
2023-05-31T07:07:22.065Z,17.42
2023-05-31T07:08:22.312Z,17.44
2023-05-31T07:09:22.617Z,17.41
2023-05-31T07:10:23.496Z,17.3
2023-05-31T07:11:24.649Z,17.2
2023-05-31T07:12:25.035Z,17.17
2023-05-31T07:13:25.535Z,17.27
2023-05-31T07:14:26.278Z,17.19
2023-05-31T07:15:26.808Z,17.22
2023-05-31T07:16:27.801Z,17.23
2023-05-31T07:17:27.881Z,17.34
2023-05-31T07:18:28.204Z,17.39
2023-05-31T07:19:28.917Z,17.54
2023-05-31T07:20:29.740Z,17.65
2023-05-31T07:21:30.538Z,17.72
2023-05-31T07:22:31.468Z,17.93
2023-05-31T07:23:31.353Z,18.03
2023-05-31T07:24:32.276Z,18.41
2023-05-31T07:25:33.026Z,18.81
2023-05-31T07:26:33.425Z,19.19
2023-05-31T07:27:34.362Z,19.67
2023-05-31T07:28:35.064Z,19.93
2023-05-31T07:29:35.772Z,20.03
2023-05-31T07:30:36.680Z,19.97
2023-05-31T07:31:37.410Z,19.94
2023-05-31T07:32:38.273Z,19.93
2023-05-31T07:33:38.944Z,19.84
2023-05-31T07:35:03.594Z,19.84
2023-05-31T07:35:39.510Z,19.87
2023-05-31T07:36:40.060Z,19.94
2023-05-31T07:37:41.348Z,19.97
2023-05-31T07:38:42.063Z,20.04
2023-05-31T07:39:42.945Z,20.11
2023-05-31T07:40:43.637Z,20.19
2023-05-31T07:41:44.343Z,20.22
2023-05-31T07:42:44.689Z,20.22
2023-05-31T07:43:44.829Z,20.34
2023-05-31T07:44:45.367Z,20.48
2023-05-31T07:45:45.456Z,20.59
2023-05-31T07:46:46.238Z,20.89
2023-05-31T07:47:47.162Z,21.11
2023-05-31T07:48:47.539Z,21.37
2023-05-31T07:49:47.607Z,21.58
2023-05-31T07:50:48.383Z,22.01
2023-05-31T07:51:49.113Z,22.41
2023-05-31T07:52:49.822Z,22.71
2023-05-31T07:53:49.832Z,22.93
2023-05-31T07:54:50.765Z,23.14
2023-05-31T07:55:51.675Z,23.42
2023-05-31T07:56:51.395Z,23.71
2023-05-31T07:57:52.297Z,23.91
2023-05-31T07:58:53.070Z,24.09
2023-05-31T07:59:54.007Z,24.1
2023-05-31T08:00:54.905Z,24.29
2023-05-31T08:01:55.158Z,24.48
2023-05-31T08:02:56.063Z,24.58
2023-05-31T08:03:57.218Z,24.75
2023-05-31T08:04:57.651Z,24.94
2023-05-31T08:05:59.226Z,24.81
2023-05-31T08:07:58.655Z,24.13
2023-05-31T08:08:58.897Z,23.79
2023-05-31T08:09:59.411Z,23.51
2023-05-31T08:11:00.561Z,23.39
2023-05-31T08:12:00.771Z,23.29
2023-05-31T08:13:01.980Z,23.32
2023-05-31T08:14:01.929Z,23.28
2023-05-31T08:15:03.255Z,23.29
2023-05-31T08:16:04.185Z,23.29
2023-05-31T08:17:05.061Z,23.18
2023-05-31T08:18:05.358Z,22.96
2023-05-31T08:19:05.199Z,22.96
2023-05-31T08:20:06.415Z,22.8
2023-05-31T08:21:07.876Z,22.67
2023-05-31T08:22:08.030Z,22.56
2023-05-31T08:23:08.913Z,22.61
2023-05-31T08:24:09.821Z,22.59
2023-05-31T08:25:10.926Z,22.78
2023-05-31T08:26:11.452Z,22.91
2023-05-31T08:27:12.532Z,22.98
2023-05-31T08:28:13.245Z,23.25
2023-05-31T08:29:14.429Z,23.4
2023-05-31T08:30:14.156Z,23.56
2023-05-31T08:31:15.375Z,23.81
2023-05-31T08:32:15.327Z,23.95
2023-05-31T08:33:16.172Z,24.25
2023-05-31T08:34:17.280Z,24.56
2023-05-31T08:35:18.398Z,24.96
2023-05-31T08:36:19.280Z,25.3
2023-05-31T08:37:20.391Z,25.58
2023-05-31T08:38:21.323Z,25.78
2023-05-31T08:39:21.267Z,25.83
2023-05-31T08:40:22.295Z,25.81
2023-05-31T08:41:22.697Z,25.88
2023-05-31T08:42:23.659Z,25.54
2023-05-31T08:43:24.133Z,25.31
2023-05-31T08:44:25.136Z,25.26
2023-05-31T08:45:24.882Z,25.21
2023-05-31T08:46:25.728Z,25.14
2023-05-31T08:47:27.201Z,25.12
2023-05-31T08:48:27.035Z,25.11
2023-05-31T08:49:27.594Z,25.01
2023-05-31T08:50:28.875Z,24.97
2023-05-31T08:51:29.420Z,24.66
2023-05-31T08:52:30.126Z,24.61
2023-05-31T08:53:31.391Z,24.53
2023-05-31T08:54:32.161Z,24.46
2023-05-31T08:55:32.765Z,24.46
2023-05-31T08:56:33.398Z,24.03
2023-05-31T08:57:33.808Z,23.84
2023-05-31T08:58:34.794Z,23.69
2023-05-31T08:59:35.344Z,23.62
2023-05-31T09:00:35.850Z,23.49
2023-05-31T09:01:36.879Z,23.4
2023-05-31T09:02:37.619Z,23.33
2023-05-31T09:03:38.604Z,23.59
2023-05-31T09:04:39.601Z,23.56
2023-05-31T09:05:40.034Z,23.64
2023-05-31T09:06:39.954Z,23.86
2023-05-31T09:07:40.700Z,23.92
2023-05-31T09:08:41.456Z,24.18
2023-05-31T09:09:42.493Z,24.59
2023-05-31T09:10:42.974Z,24.93
2023-05-31T09:11:43.340Z,25.3
2023-05-31T09:12:44.272Z,25.67
2023-05-31T09:13:45.267Z,25.99
2023-05-31T09:14:46.152Z,26.36
2023-05-31T09:15:47.705Z,26.64
2023-05-31T09:16:47.836Z,26.53
2023-05-31T09:17:48.246Z,26.24
2023-05-31T09:18:48.922Z,25.85
2023-05-31T09:19:49.667Z,25.43
2023-05-31T09:21:03.996Z,25.39
2023-05-31T09:22:51.385Z,25.52
2023-05-31T09:23:52.212Z,25.43
2023-05-31T09:24:53.183Z,25.14
2023-05-31T09:25:54.345Z,25.25
2023-05-31T09:26:55.122Z,25.15
2023-05-31T09:27:56.071Z,25.16
2023-05-31T09:28:56.985Z,25
2023-05-31T09:29:57.726Z,24.99
2023-05-31T09:30:59.274Z,24.81
2023-05-31T09:31:59.425Z,24.68
2023-05-31T09:32:59.381Z,24.66
2023-05-31T09:34:00.378Z,24.78
2023-05-31T09:35:01.372Z,25.03
2023-05-31T09:36:02.321Z,25.12
2023-05-31T09:37:02.068Z,25.15
2023-05-31T09:38:02.919Z,25.39
2023-05-31T09:39:03.686Z,25.49
2023-05-31T09:40:03.468Z,25.66
2023-05-31T09:41:04.621Z,25.77
2023-05-31T09:42:05.344Z,25.67
2023-05-31T09:43:06.282Z,25.66
2023-05-31T09:44:06.106Z,25.7
2023-05-31T09:45:07.044Z,25.76
2023-05-31T09:46:07.918Z,25.68
2023-05-31T09:47:08.902Z,25.66
2023-05-31T09:48:09.735Z,25.7
2023-05-31T09:49:10.456Z,25.77
2023-05-31T09:50:11.465Z,25.43
2023-05-31T09:51:11.282Z,25.3
2023-05-31T09:52:12.244Z,25.14
2023-05-31T09:53:12.997Z,25.18
2023-05-31T09:54:14.516Z,25.33
2023-05-31T09:55:14.253Z,25.44
2023-05-31T09:56:14.800Z,25.43
2023-05-31T09:57:15.343Z,25.46
2023-05-31T09:58:15.846Z,25.33
2023-05-31T09:59:16.205Z,25.3
2023-05-31T10:00:17.658Z,25.11
2023-05-31T10:01:17.812Z,25.24
2023-05-31T10:02:18.536Z,25.33
2023-05-31T10:03:19.820Z,25.16
2023-05-31T10:04:19.976Z,25.09
2023-05-31T10:05:20.900Z,25.12
2023-05-31T10:06:21.825Z,25.3
2023-05-31T10:07:23.815Z,25.51
2023-05-31T10:08:23.687Z,25.61
2023-05-31T10:09:24.404Z,25.66
2023-05-31T10:10:25.380Z,25.63
2023-05-31T10:11:26.342Z,25.63
2023-05-31T10:12:26.958Z,25.7
2023-05-31T10:13:27.570Z,25.66
2023-05-31T10:14:28.200Z,25.58
2023-05-31T10:15:28.896Z,25.62
2023-05-31T10:16:29.659Z,25.55
2023-05-31T10:17:29.709Z,25.46
2023-05-31T10:18:29.767Z,25.56
2023-05-31T10:19:30.288Z,25.66
2023-05-31T10:20:30.684Z,25.68
2023-05-31T10:21:31.723Z,25.85
2023-05-31T10:22:32.495Z,25.95
2023-05-31T10:23:33.200Z,26.08
2023-05-31T10:24:33.918Z,26.23
2023-05-31T10:25:34.452Z,26.37
2023-05-31T10:26:35.416Z,26.76
2023-05-31T10:27:36.352Z,26.76
2023-05-31T10:28:36.065Z,26.81
2023-05-31T10:29:37.001Z,26.6
2023-05-31T10:30:37.945Z,26.36
2023-05-31T10:31:38.608Z,26.16
2023-05-31T10:32:39.374Z,25.95
2023-05-31T10:33:40.576Z,25.66
2023-05-31T10:34:40.841Z,25.49
2023-05-31T10:35:41.573Z,25.31
2023-05-31T10:36:41.955Z,25.24
2023-05-31T10:37:42.483Z,25.26
2023-05-31T10:38:42.977Z,25.36
2023-05-31T10:39:43.695Z,25.49
2023-05-31T10:40:44.422Z,25.66
2023-05-31T10:41:45.528Z,25.68
2023-05-31T10:42:46.454Z,25.66
2023-05-31T10:43:47.269Z,25.7
2023-05-31T10:44:48.137Z,25.74
2023-05-31T10:45:48.655Z,25.95
2023-05-31T10:46:53.490Z,25.88
2023-05-31T10:47:51.035Z,25.8
2023-05-31T10:48:52.131Z,25.76
2023-05-31T10:49:52.872Z,25.91
2023-05-31T10:50:53.584Z,26.01
2023-05-31T10:51:53.936Z,25.89
2023-05-31T10:52:54.473Z,25.91
2023-05-31T10:53:55.200Z,25.92
2023-05-31T10:54:55.826Z,25.98
2023-05-31T10:55:56.559Z,26.06
2023-05-31T10:56:57.400Z,26.04
2023-05-31T10:57:57.905Z,26.01
2023-05-31T10:58:58.734Z,25.99
2023-05-31T10:59:59.308Z,25.93
2023-05-31T11:01:00.741Z,25.92
2023-05-31T11:02:00.562Z,25.76
2023-05-31T11:03:02.125Z,25.78
2023-05-31T11:04:02.149Z,25.95
2023-05-31T11:05:02.692Z,25.8
2023-05-31T11:06:03.217Z,25.77
2023-05-31T11:07:07.011Z,25.83
2023-05-31T11:09:05.952Z,25.89
2023-05-31T11:10:07.340Z,25.68
2023-05-31T11:11:07.359Z,25.74
2023-05-31T11:12:07.783Z,25.77
2023-05-31T11:13:08.296Z,25.88
2023-05-31T11:14:09.397Z,25.85
2023-05-31T11:15:09.846Z,25.76
2023-05-31T11:16:10.661Z,25.74
2023-05-31T11:17:10.821Z,25.67
2023-05-31T11:18:11.453Z,25.61
2023-05-31T11:19:12.813Z,25.49
2023-05-31T11:21:12.940Z,25.43
2023-05-31T11:22:13.776Z,25.43
2023-05-31T11:23:13.878Z,25.61
2023-05-31T11:24:14.832Z,25.52
2023-05-31T11:25:15.678Z,25.39
2023-05-31T11:26:15.866Z,25.3
2023-05-31T11:27:17.008Z,25.34
2023-05-31T11:28:17.972Z,25.46
2023-05-31T11:29:17.964Z,25.46
2023-05-31T11:30:18.967Z,25.41
2023-05-31T11:31:20.086Z,25.41
2023-05-31T11:32:20.866Z,25.37
2023-05-31T11:33:20.850Z,25.46
2023-05-31T11:34:21.583Z,25.41
2023-05-31T11:35:22.620Z,25.39
2023-05-31T11:36:23.279Z,25.33
2023-05-31T11:37:25.130Z,25.34
2023-05-31T11:38:24.867Z,25.37
2023-05-31T11:39:25.371Z,25.37
2023-05-31T11:40:26.388Z,25.49
2023-05-31T11:41:27.842Z,25.49
2023-05-31T11:42:27.931Z,25.3
2023-05-31T11:43:28.715Z,25.44
2023-05-31T11:44:28.988Z,25.56
2023-05-31T11:45:29.116Z,25.66
2023-05-31T11:46:30.174Z,25.88
2023-05-31T11:47:31.122Z,25.76
2023-05-31T11:48:32.956Z,25.88
2023-05-31T11:49:33.042Z,25.76
2023-05-31T11:50:32.978Z,25.67
2023-05-31T11:51:33.465Z,25.58
2023-05-31T11:52:34.372Z,25.74
2023-05-31T11:53:35.329Z,25.71
2023-05-31T11:54:36.233Z,25.73
2023-05-31T11:55:36.735Z,25.8
2023-05-31T11:56:37.433Z,25.8
2023-05-31T11:57:38.123Z,25.7
2023-05-31T11:58:38.856Z,25.67
2023-05-31T11:59:39.085Z,25.54
2023-05-31T12:00:39.043Z,25.56
2023-05-31T12:01:39.578Z,25.58
2023-05-31T12:02:40.727Z,25.59
2023-05-31T12:03:41.132Z,25.67
2023-05-31T12:04:41.807Z,25.73
2023-05-31T12:05:42.465Z,25.89
2023-05-31T12:06:42.995Z,25.98
2023-05-31T12:07:43.731Z,26.08
2023-05-31T12:08:44.435Z,26.06
2023-05-31T12:09:45.220Z,26.22
2023-05-31T12:10:45.725Z,26.36
2023-05-31T12:11:46.624Z,26.27
2023-05-31T12:12:47.551Z,26.1
2023-05-31T12:13:48.010Z,25.98
2023-05-31T12:14:48.698Z,25.78
2023-05-31T12:15:49.217Z,26.07
2023-05-31T12:16:49.516Z,26.01
2023-05-31T12:17:50.372Z,25.92
2023-05-31T12:18:51.303Z,25.8
2023-05-31T12:19:52.173Z,25.73
2023-05-31T12:20:53.110Z,25.81
2023-05-31T12:21:53.569Z,25.71
2023-05-31T12:22:54.272Z,25.67
2023-05-31T12:23:55.193Z,25.66
2023-05-31T12:24:55.718Z,25.7
2023-05-31T12:25:55.918Z,25.76
2023-05-31T12:26:56.846Z,25.88
2023-05-31T12:27:57.541Z,25.83
2023-05-31T12:28:58.117Z,25.8
2023-05-31T12:30:01.866Z,25.85
2023-05-31T12:32:00.961Z,25.85
2023-05-31T12:33:01.877Z,25.85
2023-05-31T12:34:01.874Z,25.78
2023-05-31T12:35:02.861Z,25.86
2023-05-31T12:36:03.132Z,25.95
2023-05-31T12:37:04.054Z,26.13
2023-05-31T12:38:04.613Z,26.26
2023-05-31T12:39:04.985Z,26.39
2023-05-31T12:40:06.121Z,26.52
2023-05-31T12:41:06.129Z,26.67
2023-05-31T12:42:07.155Z,26.66
2023-05-31T12:43:07.298Z,26.79
2023-05-31T12:44:08.339Z,27
2023-05-31T12:45:09.061Z,26.98
2023-05-31T12:46:09.881Z,27.01
2023-05-31T12:47:10.626Z,26.97
2023-05-31T12:48:12.066Z,27
2023-05-31T12:49:12.383Z,26.83
2023-05-31T12:50:13.209Z,26.71
2023-05-31T12:51:14.323Z,26.67
2023-05-31T12:52:14.940Z,26.53
2023-05-31T12:53:15.475Z,26.39
2023-05-31T12:54:15.983Z,26.41
2023-05-31T12:55:16.512Z,26.46
2023-05-31T12:56:18.800Z,26.52
2023-05-31T12:58:18.776Z,26.44
2023-05-31T12:59:19.716Z,26.53
2023-05-31T13:00:20.725Z,26.59
2023-05-31T13:01:21.568Z,26.73
2023-05-31T13:02:21.629Z,26.74
2023-05-31T13:03:22.255Z,26.92
2023-05-31T13:04:22.560Z,27.04
2023-05-31T13:05:23.544Z,27.19
2023-05-31T13:06:24.131Z,27.07
2023-05-31T13:07:25.086Z,26.93
2023-05-31T13:08:25.364Z,26.88
2023-05-31T13:09:26.122Z,26.93
2023-05-31T13:10:26.858Z,27.07
2023-05-31T13:11:27.801Z,27
2023-05-31T13:12:28.117Z,26.83
2023-05-31T13:13:28.683Z,26.73
2023-05-31T13:14:31.928Z,26.74
2023-05-31T13:17:31.476Z,26.41
2023-05-31T13:18:32.398Z,26.41
2023-05-31T13:19:32.502Z,26.49
2023-05-31T13:20:33.419Z,26.6
2023-05-31T13:21:34.230Z,26.59
2023-05-31T13:22:34.963Z,26.53
2023-05-31T13:23:35.802Z,26.44
2023-05-31T13:24:36.753Z,26.49
2023-05-31T13:25:36.702Z,26.44